sensor_id;sensor_type;location;lat;lon;timestamp;temperature;humidity
25346;DHT22;13300;51.032;3.710;2022-12-07T00:00:30;7.40;99.90
25346;DHT22;13300;51.032;3.710;2022-12-07T00:02:56;7.50;99.90
25346;DHT22;13300;51.032;3.710;2022-12-07T00:05:21;7.50;99.90
25346;DHT22;13300;51.032;3.710;2022-12-07T00:07:47;7.50;99.90
25346;DHT22;13300;51.032;3.710;2022-12-07T00:10:12;7.40;99.90
25346;DHT22;13300;51.032;3.710;2022-12-07T00:12:40;7.50;99.90
25346;DHT22;13300;51.032;3.710;2022-12-07T00:15:06;7.50;99.90
25346;DHT22;13300;51.032;3.710;2022-12-07T00:17:32;7.60;99.90
25346;DHT22;13300;51.032;3.710;2022-12-07T00:19:58;7.50;99.90
25346;DHT22;13300;51.032;3.710;2022-12-07T00:22:24;7.50;99.90
25346;DHT22;13300;51.032;3.710;2022-12-07T00:24:50;7.60;99.90
25346;DHT22;13300;51.032;3.710;2022-12-07T00:27:15;7.50;99.90
25346;DHT22;13300;51.032;3.710;2022-12-07T00:29:44;7.50;99.90
25346;DHT22;13300;51.032;3.710;2022-12-07T00:32:10;7.60;99.90
25346;DHT22;13300;51.032;3.710;2022-12-07T00:34:35;7.70;99.90
25346;DHT22;13300;51.032;3.710;2022-12-07T00:37:01;7.70;99.90
25346;DHT22;13300;51.032;3.710;2022-12-07T00:39:27;7.70;99.90
25346;DHT22;13300;51.032;3.710;2022-12-07T00:41:52;7.70;99.90
25346;DHT22;13300;51.032;3.710;2022-12-07T00:44:18;7.70;99.90
25346;DHT22;13300;51.032;3.710;2022-12-07T00:46:44;7.70;99.90
25346;DHT22;13300;51.032;3.710;2022-12-07T00:49:10;7.60;99.90
25346;DHT22;13300;51.032;3.710;2022-12-07T00:51:36;7.60;99.90
25346;DHT22;13300;51.032;3.710;2022-12-07T00:54:01;7.50;99.90
25346;DHT22;13300;51.032;3.710;2022-12-07T00:56:28;7.50;99.90
25346;DHT22;13300;51.032;3.710;2022-12-07T00:58:58;7.40;99.90
25346;DHT22;13300;51.032;3.710;2022-12-07T01:01:25;7.30;99.90
25346;DHT22;13300;51.032;3.710;2022-12-07T01:03:50;7.30;99.90
25346;DHT22;13300;51.032;3.710;2022-12-07T01:06:16;7.30;99.90
25346;DHT22;13300;51.032;3.710;2022-12-07T01:08:43;7.10;99.90
25346;DHT22;13300;51.032;3.710;2022-12-07T01:11:09;7.10;99.90
25346;DHT22;13300;51.032;3.710;2022-12-07T01:13:37;7.10;99.90
25346;DHT22;13300;51.032;3.710;2022-12-07T01:16:03;6.90;99.90
25346;DHT22;13300;51.032;3.710;2022-12-07T01:18:30;6.90;99.90
25346;DHT22;13300;51.032;3.710;2022-12-07T01:21:00;6.90;99.90
25346;DHT22;13300;51.032;3.710;2022-12-07T01:23:26;6.90;99.90
25346;DHT22;13300;51.032;3.710;2022-12-07T01:25:55;6.80;99.90
25346;DHT22;13300;51.032;3.710;2022-12-07T01:28:21;6.80;99.90
25346;DHT22;13300;51.032;3.710;2022-12-07T01:30:54;6.70;99.90
25346;DHT22;13300;51.032;3.710;2022-12-07T01:33:20;6.70;99.90
25346;DHT22;13300;51.032;3.710;2022-12-07T01:35:45;6.60;99.90
25346;DHT22;13300;51.032;3.710;2022-12-07T01:38:11;6.60;99.90
25346;DHT22;13300;51.032;3.710;2022-12-07T01:40:37;6.50;99.90
25346;DHT22;13300;51.032;3.710;2022-12-07T01:43:04;6.60;99.90
25346;DHT22;13300;51.032;3.710;2022-12-07T01:45:42;6.50;99.90
25346;DHT22;13300;51.032;3.710;2022-12-07T01:48:08;6.60;99.90
25346;DHT22;13300;51.032;3.710;2022-12-07T01:50:34;6.60;99.90
25346;DHT22;13300;51.032;3.710;2022-12-07T01:53:01;6.70;99.90
25346;DHT22;13300;51.032;3.710;2022-12-07T01:55:28;6.80;99.90
25346;DHT22;13300;51.032;3.710;2022-12-07T01:57:55;6.80;99.90
25346;DHT22;13300;51.032;3.710;2022-12-07T02:00:21;6.70;99.90
25346;DHT22;13300;51.032;3.710;2022-12-07T02:02:48;6.70;99.90
25346;DHT22;13300;51.032;3.710;2022-12-07T02:05:16;6.70;99.90
25346;DHT22;13300;51.032;3.710;2022-12-07T02:07:42;6.60;99.90
25346;DHT22;13300;51.032;3.710;2022-12-07T02:10:18;6.50;99.90
25346;DHT22;13300;51.032;3.710;2022-12-07T02:12:44;6.40;99.90
25346;DHT22;13300;51.032;3.710;2022-12-07T02:15:12;6.30;99.90
25346;DHT22;13300;51.032;3.710;2022-12-07T02:20:41;6.20;99.90
25346;DHT22;13300;51.032;3.710;2022-12-07T02:28:31;6.00;99.90
25346;DHT22;13300;51.032;3.710;2022-12-07T02:30:59;6.10;99.90
25346;DHT22;13300;51.032;3.710;2022-12-07T02:33:37;6.10;99.90
25346;DHT22;13300;51.032;3.710;2022-12-07T02:36:40;6.20;99.90
25346;DHT22;13300;51.032;3.710;2022-12-07T02:38:59;6.20;99.90
25346;DHT22;13300;51.032;3.710;2022-12-07T02:41:31;6.20;99.90
25346;DHT22;13300;51.032;3.710;2022-12-07T02:43:59;6.30;99.90
25346;DHT22;13300;51.032;3.710;2022-12-07T02:46:34;6.20;99.90
25346;DHT22;13300;51.032;3.710;2022-12-07T02:49:01;6.20;99.90
25346;DHT22;13300;51.032;3.710;2022-12-07T02:51:30;6.40;99.90
25346;DHT22;13300;51.032;3.710;2022-12-07T02:53:56;6.40;99.90
25346;DHT22;13300;51.032;3.710;2022-12-07T03:06:56;6.50;99.90
25346;DHT22;13300;51.032;3.710;2022-12-07T03:12:01;6.60;99.90
25346;DHT22;13300;51.032;3.710;2022-12-07T03:14:34;6.60;99.90
25346;DHT22;13300;51.032;3.710;2022-12-07T03:17:14;6.60;99.90
25346;DHT22;13300;51.032;3.710;2022-12-07T03:19:41;6.70;99.90
25346;DHT22;13300;51.032;3.710;2022-12-07T03:22:11;6.70;99.90
25346;DHT22;13300;51.032;3.710;2022-12-07T03:24:51;6.80;99.90
25346;DHT22;13300;51.032;3.710;2022-12-07T03:27:28;6.70;99.90
25346;DHT22;13300;51.032;3.710;2022-12-07T03:30:02;6.70;99.90
25346;DHT22;13300;51.032;3.710;2022-12-07T03:32:31;6.80;99.90
25346;DHT22;13300;51.032;3.710;2022-12-07T03:35:11;6.70;99.90
25346;DHT22;13300;51.032;3.710;2022-12-07T03:37:40;6.60;99.90
25346;DHT22;13300;51.032;3.710;2022-12-07T03:40:28;6.60;99.90
25346;DHT22;13300;51.032;3.710;2022-12-07T03:42:55;6.50;99.90
25346;DHT22;13300;51.032;3.710;2022-12-07T03:45:22;6.40;99.90
25346;DHT22;13300;51.032;3.710;2022-12-07T03:47:56;6.30;99.90
25346;DHT22;13300;51.032;3.710;2022-12-07T03:51:01;6.20;99.90
25346;DHT22;13300;51.032;3.710;2022-12-07T03:53:21;6.20;99.90
25346;DHT22;13300;51.032;3.710;2022-12-07T03:55:47;6.10;99.90
25346;DHT22;13300;51.032;3.710;2022-12-07T03:58:17;6.10;99.90
25346;DHT22;13300;51.032;3.710;2022-12-07T04:00:44;6.10;99.90
25346;DHT22;13300;51.032;3.710;2022-12-07T04:03:10;6.20;99.90
25346;DHT22;13300;51.032;3.710;2022-12-07T04:05:36;6.10;99.90
25346;DHT22;13300;51.032;3.710;2022-12-07T04:08:01;6.00;99.90
25346;DHT22;13300;51.032;3.710;2022-12-07T04:10:27;5.90;99.90
25346;DHT22;13300;51.032;3.710;2022-12-07T04:12:53;5.90;99.90
25346;DHT22;13300;51.032;3.710;2022-12-07T04:15:18;5.90;99.90
25346;DHT22;13300;51.032;3.710;2022-12-07T04:17:44;5.80;99.90
25346;DHT22;13300;51.032;3.710;2022-12-07T04:20:10;5.80;99.90
25346;DHT22;13300;51.032;3.710;2022-12-07T04:22:35;5.80;99.90
25346;DHT22;13300;51.032;3.710;2022-12-07T04:25:01;5.80;99.90
25346;DHT22;13300;51.032;3.710;2022-12-07T04:27:27;5.90;99.90
25346;DHT22;13300;51.032;3.710;2022-12-07T04:29:52;5.90;99.90
25346;DHT22;13300;51.032;3.710;2022-12-07T04:32:18;5.90;99.90
25346;DHT22;13300;51.032;3.710;2022-12-07T04:34:44;5.90;99.90
25346;DHT22;13300;51.032;3.710;2022-12-07T04:37:09;6.00;99.90
25346;DHT22;13300;51.032;3.710;2022-12-07T04:39:35;6.00;99.90
25346;DHT22;13300;51.032;3.710;2022-12-07T04:42:01;6.00;99.90
25346;DHT22;13300;51.032;3.710;2022-12-07T04:44:27;6.00;99.90
25346;DHT22;13300;51.032;3.710;2022-12-07T04:46:53;6.00;99.90
25346;DHT22;13300;51.032;3.710;2022-12-07T04:49:19;6.00;99.90
25346;DHT22;13300;51.032;3.710;2022-12-07T04:51:45;6.00;99.90
25346;DHT22;13300;51.032;3.710;2022-12-07T04:54:11;6.00;99.90
25346;DHT22;13300;51.032;3.710;2022-12-07T04:56:37;6.30;99.90
25346;DHT22;13300;51.032;3.710;2022-12-07T04:59:03;6.30;99.90
25346;DHT22;13300;51.032;3.710;2022-12-07T05:01:29;6.30;99.90
25346;DHT22;13300;51.032;3.710;2022-12-07T05:03:55;6.40;99.90
25346;DHT22;13300;51.032;3.710;2022-12-07T05:06:20;6.30;99.90
25346;DHT22;13300;51.032;3.710;2022-12-07T05:08:46;6.20;99.90
25346;DHT22;13300;51.032;3.710;2022-12-07T05:11:12;5.80;99.90
25346;DHT22;13300;51.032;3.710;2022-12-07T05:13:56;5.80;99.90
25346;DHT22;13300;51.032;3.710;2022-12-07T05:16:22;5.90;99.90
25346;DHT22;13300;51.032;3.710;2022-12-07T05:18:48;6.00;99.90
25346;DHT22;13300;51.032;3.710;2022-12-07T05:21:14;6.00;99.90
25346;DHT22;13300;51.032;3.710;2022-12-07T05:23:39;6.10;99.90
25346;DHT22;13300;51.032;3.710;2022-12-07T05:26:05;6.20;99.90
25346;DHT22;13300;51.032;3.710;2022-12-07T05:28:30;6.30;99.90
25346;DHT22;13300;51.032;3.710;2022-12-07T05:30:56;6.30;99.90
25346;DHT22;13300;51.032;3.710;2022-12-07T05:33:22;6.40;99.90
25346;DHT22;13300;51.032;3.710;2022-12-07T05:35:47;6.30;99.90
25346;DHT22;13300;51.032;3.710;2022-12-07T05:38:13;6.20;99.90
25346;DHT22;13300;51.032;3.710;2022-12-07T05:40:39;6.10;99.90
25346;DHT22;13300;51.032;3.710;2022-12-07T05:43:04;6.00;99.90
25346;DHT22;13300;51.032;3.710;2022-12-07T05:45:30;6.00;99.90
25346;DHT22;13300;51.032;3.710;2022-12-07T05:47:55;5.90;99.90
25346;DHT22;13300;51.032;3.710;2022-12-07T05:50:21;5.90;99.90
25346;DHT22;13300;51.032;3.710;2022-12-07T05:52:46;5.80;99.90
25346;DHT22;13300;51.032;3.710;2022-12-07T05:55:12;5.80;99.90
25346;DHT22;13300;51.032;3.710;2022-12-07T05:57:38;5.70;99.90
25346;DHT22;13300;51.032;3.710;2022-12-07T06:00:04;5.70;99.90
25346;DHT22;13300;51.032;3.710;2022-12-07T06:02:30;5.80;99.90
25346;DHT22;13300;51.032;3.710;2022-12-07T06:04:55;5.70;99.90
25346;DHT22;13300;51.032;3.710;2022-12-07T06:07:21;5.60;99.90
25346;DHT22;13300;51.032;3.710;2022-12-07T06:09:46;5.60;99.90
25346;DHT22;13300;51.032;3.710;2022-12-07T06:12:12;5.70;99.90
25346;DHT22;13300;51.032;3.710;2022-12-07T06:15:00;5.70;99.90
25346;DHT22;13300;51.032;3.710;2022-12-07T06:17:26;5.70;99.90
25346;DHT22;13300;51.032;3.710;2022-12-07T06:19:59;5.80;99.90
25346;DHT22;13300;51.032;3.710;2022-12-07T06:22:25;5.90;99.90
25346;DHT22;13300;51.032;3.710;2022-12-07T06:24:51;5.90;99.90
25346;DHT22;13300;51.032;3.710;2022-12-07T06:27:16;5.90;99.90
25346;DHT22;13300;51.032;3.710;2022-12-07T06:29:42;5.80;99.90
25346;DHT22;13300;51.032;3.710;2022-12-07T06:32:08;5.80;99.90
25346;DHT22;13300;51.032;3.710;2022-12-07T06:34:34;5.70;99.90
25346;DHT22;13300;51.032;3.710;2022-12-07T06:37:00;5.70;99.90
25346;DHT22;13300;51.032;3.710;2022-12-07T06:39:27;5.90;99.90
25346;DHT22;13300;51.032;3.710;2022-12-07T06:41:53;5.80;99.90
25346;DHT22;13300;51.032;3.710;2022-12-07T06:44:19;5.80;99.90
25346;DHT22;13300;51.032;3.710;2022-12-07T06:46:47;5.80;99.90
25346;DHT22;13300;51.032;3.710;2022-12-07T06:49:13;5.80;99.90
25346;DHT22;13300;51.032;3.710;2022-12-07T06:51:39;5.90;99.90
25346;DHT22;13300;51.032;3.710;2022-12-07T06:54:08;6.00;99.90
25346;DHT22;13300;51.032;3.710;2022-12-07T06:56:34;6.00;99.90
25346;DHT22;13300;51.032;3.710;2022-12-07T06:58:59;6.10;99.90
25346;DHT22;13300;51.032;3.710;2022-12-07T07:01:25;6.10;99.90
25346;DHT22;13300;51.032;3.710;2022-12-07T07:03:51;6.10;99.90
25346;DHT22;13300;51.032;3.710;2022-12-07T07:06:16;6.10;99.90
25346;DHT22;13300;51.032;3.710;2022-12-07T07:08:42;6.10;99.90
25346;DHT22;13300;51.032;3.710;2022-12-07T07:11:08;6.20;99.90
25346;DHT22;13300;51.032;3.710;2022-12-07T07:13:34;6.20;99.90
25346;DHT22;13300;51.032;3.710;2022-12-07T07:15:59;6.20;99.90
25346;DHT22;13300;51.032;3.710;2022-12-07T07:18:25;6.20;99.90
25346;DHT22;13300;51.032;3.710;2022-12-07T07:20:51;6.20;99.90
25346;DHT22;13300;51.032;3.710;2022-12-07T07:23:23;6.20;99.90
25346;DHT22;13300;51.032;3.710;2022-12-07T07:25:57;6.20;99.90
25346;DHT22;13300;51.032;3.710;2022-12-07T07:28:22;6.10;99.90
25346;DHT22;13300;51.032;3.710;2022-12-07T07:30:48;6.10;99.90
25346;DHT22;13300;51.032;3.710;2022-12-07T07:33:14;6.20;99.90
25346;DHT22;13300;51.032;3.710;2022-12-07T07:35:40;6.20;99.90
25346;DHT22;13300;51.032;3.710;2022-12-07T07:38:06;6.20;99.90
25346;DHT22;13300;51.032;3.710;2022-12-07T07:40:31;6.20;99.90
25346;DHT22;13300;51.032;3.710;2022-12-07T07:42:57;6.20;99.90
25346;DHT22;13300;51.032;3.710;2022-12-07T07:45:23;6.30;99.90
25346;DHT22;13300;51.032;3.710;2022-12-07T07:47:49;6.40;99.90
25346;DHT22;13300;51.032;3.710;2022-12-07T07:50:15;6.30;99.90
25346;DHT22;13300;51.032;3.710;2022-12-07T07:52:41;6.20;99.90
25346;DHT22;13300;51.032;3.710;2022-12-07T07:55:07;6.30;99.90
25346;DHT22;13300;51.032;3.710;2022-12-07T07:57:34;6.40;99.90
25346;DHT22;13300;51.032;3.710;2022-12-07T08:00:00;6.50;99.90
25346;DHT22;13300;51.032;3.710;2022-12-07T08:02:26;6.50;99.90
25346;DHT22;13300;51.032;3.710;2022-12-07T08:04:54;6.50;99.90
25346;DHT22;13300;51.032;3.710;2022-12-07T08:07:20;6.50;99.90
25346;DHT22;13300;51.032;3.710;2022-12-07T08:09:45;6.60;99.90
25346;DHT22;13300;51.032;3.710;2022-12-07T08:12:11;6.50;99.90
25346;DHT22;13300;51.032;3.710;2022-12-07T08:14:37;6.50;99.90
25346;DHT22;13300;51.032;3.710;2022-12-07T08:17:02;6.40;99.90
25346;DHT22;13300;51.032;3.710;2022-12-07T08:19:28;6.50;99.90
25346;DHT22;13300;51.032;3.710;2022-12-07T08:21:53;6.70;99.90
25346;DHT22;13300;51.032;3.710;2022-12-07T08:24:21;6.80;99.90
25346;DHT22;13300;51.032;3.710;2022-12-07T08:26:46;7.00;99.90
25346;DHT22;13300;51.032;3.710;2022-12-07T08:29:12;7.10;99.90
25346;DHT22;13300;51.032;3.710;2022-12-07T08:31:38;7.10;99.90
25346;DHT22;13300;51.032;3.710;2022-12-07T08:34:03;7.10;99.90
25346;DHT22;13300;51.032;3.710;2022-12-07T08:36:30;7.20;99.90
25346;DHT22;13300;51.032;3.710;2022-12-07T08:38:55;7.40;99.90
25346;DHT22;13300;51.032;3.710;2022-12-07T08:41:21;7.60;99.90
25346;DHT22;13300;51.032;3.710;2022-12-07T08:43:47;7.90;99.90
25346;DHT22;13300;51.032;3.710;2022-12-07T08:46:20;8.10;99.90
25346;DHT22;13300;51.032;3.710;2022-12-07T08:48:51;8.20;99.90
25346;DHT22;13300;51.032;3.710;2022-12-07T08:51:18;8.60;99.90
25346;DHT22;13300;51.032;3.710;2022-12-07T08:53:43;9.10;99.90
25346;DHT22;13300;51.032;3.710;2022-12-07T08:56:10;9.40;99.90
25346;DHT22;13300;51.032;3.710;2022-12-07T08:58:35;9.40;99.90
25346;DHT22;13300;51.032;3.710;2022-12-07T09:01:04;9.20;99.90
25346;DHT22;13300;51.032;3.710;2022-12-07T09:03:30;9.10;99.90
25346;DHT22;13300;51.032;3.710;2022-12-07T09:05:55;9.10;99.90
25346;DHT22;13300;51.032;3.710;2022-12-07T09:08:22;9.30;99.90
25346;DHT22;13300;51.032;3.710;2022-12-07T09:10:48;9.70;99.90
25346;DHT22;13300;51.032;3.710;2022-12-07T09:13:14;10.30;99.90
25346;DHT22;13300;51.032;3.710;2022-12-07T09:15:40;10.90;99.90
25346;DHT22;13300;51.032;3.710;2022-12-07T09:18:09;11.40;99.90
25346;DHT22;13300;51.032;3.710;2022-12-07T09:20:34;11.90;99.90
25346;DHT22;13300;51.032;3.710;2022-12-07T09:23:00;12.30;99.90
25346;DHT22;13300;51.032;3.710;2022-12-07T09:25:26;12.70;99.90
25346;DHT22;13300;51.032;3.710;2022-12-07T09:27:55;12.90;99.90
25346;DHT22;13300;51.032;3.710;2022-12-07T09:30:21;12.70;99.90
25346;DHT22;13300;51.032;3.710;2022-12-07T09:32:47;12.20;99.90
25346;DHT22;13300;51.032;3.710;2022-12-07T09:35:13;11.30;99.90
25346;DHT22;13300;51.032;3.710;2022-12-07T09:37:38;10.40;99.90
25346;DHT22;13300;51.032;3.710;2022-12-07T09:40:04;9.80;99.90
25346;DHT22;13300;51.032;3.710;2022-12-07T09:42:37;9.40;99.90
25346;DHT22;13300;51.032;3.710;2022-12-07T09:45:05;9.00;99.90
25346;DHT22;13300;51.032;3.710;2022-12-07T09:47:32;8.50;99.90
25346;DHT22;13300;51.032;3.710;2022-12-07T09:50:01;8.20;99.90
25346;DHT22;13300;51.032;3.710;2022-12-07T09:52:29;8.00;99.90
25346;DHT22;13300;51.032;3.710;2022-12-07T09:54:55;7.80;99.90
25346;DHT22;13300;51.032;3.710;2022-12-07T09:57:25;7.80;99.90
25346;DHT22;13300;51.032;3.710;2022-12-07T09:59:53;7.90;99.90
25346;DHT22;13300;51.032;3.710;2022-12-07T10:02:22;8.00;99.90
25346;DHT22;13300;51.032;3.710;2022-12-07T10:04:48;8.00;99.90
25346;DHT22;13300;51.032;3.710;2022-12-07T10:07:14;8.10;99.90
25346;DHT22;13300;51.032;3.710;2022-12-07T10:09:40;8.10;99.90
25346;DHT22;13300;51.032;3.710;2022-12-07T10:12:08;8.10;99.90
25346;DHT22;13300;51.032;3.710;2022-12-07T10:14:35;8.30;99.90
25346;DHT22;13300;51.032;3.710;2022-12-07T10:17:02;8.30;99.90
25346;DHT22;13300;51.032;3.710;2022-12-07T10:19:29;8.20;99.90
25346;DHT22;13300;51.032;3.710;2022-12-07T10:22:02;8.30;99.90
25346;DHT22;13300;51.032;3.710;2022-12-07T10:24:28;8.40;99.90
25346;DHT22;13300;51.032;3.710;2022-12-07T10:26:54;8.40;99.90
25346;DHT22;13300;51.032;3.710;2022-12-07T10:29:22;8.40;99.90
25346;DHT22;13300;51.032;3.710;2022-12-07T10:34:37;8.90;99.90
25346;DHT22;13300;51.032;3.710;2022-12-07T10:37:21;9.10;99.90
25346;DHT22;13300;51.032;3.710;2022-12-07T10:39:55;9.40;99.90
25346;DHT22;13300;51.032;3.710;2022-12-07T10:42:22;9.80;99.90
25346;DHT22;13300;51.032;3.710;2022-12-07T10:44:48;10.20;99.90
25346;DHT22;13300;51.032;3.710;2022-12-07T10:55:13;10.70;99.90
25346;DHT22;13300;51.032;3.710;2022-12-07T11:02:49;10.50;99.90
25346;DHT22;13300;51.032;3.710;2022-12-07T11:13:12;8.80;99.90
25346;DHT22;13300;51.032;3.710;2022-12-07T11:18:25;8.80;99.90
25346;DHT22;13300;51.032;3.710;2022-12-07T11:23:31;8.80;99.90
25346;DHT22;13300;51.032;3.710;2022-12-07T11:30:59;9.20;99.90
25346;DHT22;13300;51.032;3.710;2022-12-07T11:33:41;9.40;99.90
25346;DHT22;13300;51.032;3.710;2022-12-07T11:36:14;9.50;99.90
25346;DHT22;13300;51.032;3.710;2022-12-07T11:38:43;9.50;99.90
25346;DHT22;13300;51.032;3.710;2022-12-07T11:41:12;9.40;99.90
25346;DHT22;13300;51.032;3.710;2022-12-07T11:46:16;9.50;99.90
25346;DHT22;13300;51.032;3.710;2022-12-07T11:48:54;9.70;99.90
25346;DHT22;13300;51.032;3.710;2022-12-07T11:51:23;10.10;99.90
25346;DHT22;13300;51.032;3.710;2022-12-07T11:53:56;10.50;99.90
25346;DHT22;13300;51.032;3.710;2022-12-07T11:56:25;10.70;99.90
25346;DHT22;13300;51.032;3.710;2022-12-07T11:58:54;10.90;99.90
25346;DHT22;13300;51.032;3.710;2022-12-07T12:04:02;11.10;99.90
25346;DHT22;13300;51.032;3.710;2022-12-07T12:06:30;11.20;99.90
25346;DHT22;13300;51.032;3.710;2022-12-07T12:20:31;10.50;99.90
25346;DHT22;13300;51.032;3.710;2022-12-07T12:22:33;10.20;99.90
25346;DHT22;13300;51.032;3.710;2022-12-07T12:25:00;10.00;99.90
25346;DHT22;13300;51.032;3.710;2022-12-07T12:27:30;9.80;99.90
25346;DHT22;13300;51.032;3.710;2022-12-07T12:29:58;9.60;99.90
25346;DHT22;13300;51.032;3.710;2022-12-07T12:35:26;9.30;99.90
25346;DHT22;13300;51.032;3.710;2022-12-07T12:37:45;9.10;99.90
25346;DHT22;13300;51.032;3.710;2022-12-07T12:42:44;9.20;99.90
25346;DHT22;13300;51.032;3.710;2022-12-07T12:45:18;9.30;99.90
25346;DHT22;13300;51.032;3.710;2022-12-07T12:48:00;9.40;99.90
25346;DHT22;13300;51.032;3.710;2022-12-07T12:50:33;9.60;99.90
25346;DHT22;13300;51.032;3.710;2022-12-07T12:55:53;10.20;99.90
25346;DHT22;13300;51.032;3.710;2022-12-07T13:00:46;10.60;99.90
25346;DHT22;13300;51.032;3.710;2022-12-07T13:03:29;10.80;99.90
25346;DHT22;13300;51.032;3.710;2022-12-07T13:08:40;11.10;99.90
25346;DHT22;13300;51.032;3.710;2022-12-07T13:11:20;11.30;99.90
25346;DHT22;13300;51.032;3.710;2022-12-07T13:13:50;11.20;99.90
25346;DHT22;13300;51.032;3.710;2022-12-07T13:18:41;11.30;99.90
25346;DHT22;13300;51.032;3.710;2022-12-07T13:26:16;11.00;99.90
25346;DHT22;13300;51.032;3.710;2022-12-07T13:28:43;10.90;99.90
25346;DHT22;13300;51.032;3.710;2022-12-07T13:33:38;11.00;99.90
25346;DHT22;13300;51.032;3.710;2022-12-07T13:36:21;10.90;99.90
25346;DHT22;13300;51.032;3.710;2022-12-07T13:38:55;11.00;99.90
25346;DHT22;13300;51.032;3.710;2022-12-07T13:41:22;11.00;99.90
25346;DHT22;13300;51.032;3.710;2022-12-07T13:43:49;11.00;99.90
25346;DHT22;13300;51.032;3.710;2022-12-07T13:46:15;10.80;99.90
25346;DHT22;13300;51.032;3.710;2022-12-07T13:48:48;10.70;99.90
25346;DHT22;13300;51.032;3.710;2022-12-07T13:53:51;10.40;99.90
25346;DHT22;13300;51.032;3.710;2022-12-07T13:56:20;10.40;99.90
25346;DHT22;13300;51.032;3.710;2022-12-07T13:58:46;10.40;99.90
25346;DHT22;13300;51.032;3.710;2022-12-07T14:01:14;10.50;99.90
25346;DHT22;13300;51.032;3.710;2022-12-07T14:03:40;10.50;99.90
25346;DHT22;13300;51.032;3.710;2022-12-07T14:06:07;10.50;99.90
25346;DHT22;13300;51.032;3.710;2022-12-07T14:08:33;10.40;99.90
25346;DHT22;13300;51.032;3.710;2022-12-07T14:10:58;10.40;99.90
25346;DHT22;13300;51.032;3.710;2022-12-07T14:15:53;10.30;99.90
25346;DHT22;13300;51.032;3.710;2022-12-07T14:18:29;10.00;99.90
25346;DHT22;13300;51.032;3.710;2022-12-07T14:23:36;9.50;99.90
25346;DHT22;13300;51.032;3.710;2022-12-07T14:26:13;9.20;99.90
25346;DHT22;13300;51.032;3.710;2022-12-07T14:28:40;9.10;99.90
25346;DHT22;13300;51.032;3.710;2022-12-07T14:31:16;9.10;99.90
25346;DHT22;13300;51.032;3.710;2022-12-07T14:33:42;9.10;99.90
25346;DHT22;13300;51.032;3.710;2022-12-07T14:36:08;8.90;99.90
25346;DHT22;13300;51.032;3.710;2022-12-07T14:38:34;9.00;99.90
25346;DHT22;13300;51.032;3.710;2022-12-07T14:41:00;8.90;99.90
25346;DHT22;13300;51.032;3.710;2022-12-07T14:43:44;8.80;99.90
25346;DHT22;13300;51.032;3.710;2022-12-07T14:46:09;8.80;99.90
25346;DHT22;13300;51.032;3.710;2022-12-07T14:48:35;8.80;99.90
25346;DHT22;13300;51.032;3.710;2022-12-07T14:51:01;8.90;99.90
25346;DHT22;13300;51.032;3.710;2022-12-07T14:53:34;9.00;99.90
25346;DHT22;13300;51.032;3.710;2022-12-07T14:56:01;9.00;99.90
25346;DHT22;13300;51.032;3.710;2022-12-07T14:58:26;9.00;99.90
25346;DHT22;13300;51.032;3.710;2022-12-07T15:00:52;9.10;99.90
25346;DHT22;13300;51.032;3.710;2022-12-07T15:03:18;9.20;99.90
25346;DHT22;13300;51.032;3.710;2022-12-07T15:05:43;9.30;99.90
25346;DHT22;13300;51.032;3.710;2022-12-07T15:08:10;9.30;99.90
25346;DHT22;13300;51.032;3.710;2022-12-07T15:10:36;9.30;99.90
25346;DHT22;13300;51.032;3.710;2022-12-07T15:13:04;9.30;99.90
25346;DHT22;13300;51.032;3.710;2022-12-07T15:15:49;9.20;99.90
25346;DHT22;13300;51.032;3.710;2022-12-07T15:18:15;9.00;99.90
25346;DHT22;13300;51.032;3.710;2022-12-07T15:20:41;9.00;99.90
25346;DHT22;13300;51.032;3.710;2022-12-07T15:23:06;9.00;99.90
25346;DHT22;13300;51.032;3.710;2022-12-07T15:25:32;8.90;99.90
25346;DHT22;13300;51.032;3.710;2022-12-07T15:27:58;8.70;99.90
25346;DHT22;13300;51.032;3.710;2022-12-07T15:30:24;8.50;99.90
25346;DHT22;13300;51.032;3.710;2022-12-07T15:32:50;8.40;99.90
25346;DHT22;13300;51.032;3.710;2022-12-07T15:35:15;8.30;99.90
25346;DHT22;13300;51.032;3.710;2022-12-07T15:37:41;8.30;99.90
25346;DHT22;13300;51.032;3.710;2022-12-07T15:40:07;8.20;99.90
25346;DHT22;13300;51.032;3.710;2022-12-07T15:42:33;8.10;99.90
25346;DHT22;13300;51.032;3.710;2022-12-07T15:44:58;8.00;99.90
25346;DHT22;13300;51.032;3.710;2022-12-07T15:47:31;7.90;99.90
25346;DHT22;13300;51.032;3.710;2022-12-07T15:49:56;7.80;99.90
25346;DHT22;13300;51.032;3.710;2022-12-07T15:52:22;7.70;99.90
25346;DHT22;13300;51.032;3.710;2022-12-07T15:54:48;7.60;99.90
25346;DHT22;13300;51.032;3.710;2022-12-07T15:57:13;7.60;99.90
25346;DHT22;13300;51.032;3.710;2022-12-07T15:59:39;7.50;99.90
25346;DHT22;13300;51.032;3.710;2022-12-07T16:02:05;7.50;99.90
25346;DHT22;13300;51.032;3.710;2022-12-07T16:04:30;7.50;99.90
25346;DHT22;13300;51.032;3.710;2022-12-07T16:06:56;7.50;99.90
25346;DHT22;13300;51.032;3.710;2022-12-07T16:09:22;7.50;99.90
25346;DHT22;13300;51.032;3.710;2022-12-07T16:11:50;7.50;99.90
25346;DHT22;13300;51.032;3.710;2022-12-07T16:14:16;7.40;99.90
25346;DHT22;13300;51.032;3.710;2022-12-07T16:16:44;7.50;99.90
25346;DHT22;13300;51.032;3.710;2022-12-07T16:19:09;7.40;99.90
25346;DHT22;13300;51.032;3.710;2022-12-07T16:21:36;7.50;99.90
25346;DHT22;13300;51.032;3.710;2022-12-07T16:24:02;7.50;99.90
25346;DHT22;13300;51.032;3.710;2022-12-07T16:26:27;7.50;99.90
25346;DHT22;13300;51.032;3.710;2022-12-07T16:28:53;7.30;99.90
25346;DHT22;13300;51.032;3.710;2022-12-07T16:31:22;7.20;99.90
25346;DHT22;13300;51.032;3.710;2022-12-07T16:33:49;7.10;99.90
25346;DHT22;13300;51.032;3.710;2022-12-07T16:36:15;7.00;99.90
25346;DHT22;13300;51.032;3.710;2022-12-07T16:38:41;7.00;99.90
25346;DHT22;13300;51.032;3.710;2022-12-07T16:41:07;6.90;99.90
25346;DHT22;13300;51.032;3.710;2022-12-07T16:43:34;6.80;99.90
25346;DHT22;13300;51.032;3.710;2022-12-07T16:46:00;6.80;99.90
25346;DHT22;13300;51.032;3.710;2022-12-07T16:48:25;6.80;99.90
25346;DHT22;13300;51.032;3.710;2022-12-07T16:50:51;6.70;99.90
25346;DHT22;13300;51.032;3.710;2022-12-07T16:53:19;6.70;99.90
25346;DHT22;13300;51.032;3.710;2022-12-07T16:55:45;6.80;99.90
25346;DHT22;13300;51.032;3.710;2022-12-07T16:58:11;6.90;99.90
25346;DHT22;13300;51.032;3.710;2022-12-07T17:00:38;6.90;99.90
25346;DHT22;13300;51.032;3.710;2022-12-07T17:03:04;7.00;99.90
25346;DHT22;13300;51.032;3.710;2022-12-07T17:05:32;7.10;99.90
25346;DHT22;13300;51.032;3.710;2022-12-07T17:07:58;7.10;99.90
25346;DHT22;13300;51.032;3.710;2022-12-07T17:10:27;7.10;99.90
25346;DHT22;13300;51.032;3.710;2022-12-07T17:12:52;7.10;99.90
25346;DHT22;13300;51.032;3.710;2022-12-07T17:15:18;7.20;99.90
25346;DHT22;13300;51.032;3.710;2022-12-07T17:17:56;7.30;99.90
25346;DHT22;13300;51.032;3.710;2022-12-07T17:20:25;7.50;99.90
25346;DHT22;13300;51.032;3.710;2022-12-07T17:22:53;7.40;99.90
25346;DHT22;13300;51.032;3.710;2022-12-07T17:25:19;7.40;99.90
25346;DHT22;13300;51.032;3.710;2022-12-07T17:27:45;7.30;99.90
25346;DHT22;13300;51.032;3.710;2022-12-07T17:30:11;7.40;99.90